createdAt,value
2019-02-18T00:01:21.014Z,16.87
2019-02-18T00:03:52.281Z,12.60
2019-02-18T00:06:23.536Z,10.73
2019-02-18T00:08:54.842Z,10.67
2019-02-18T00:11:26.080Z,15.67
2019-02-18T00:13:57.329Z,11.83
2019-02-18T00:16:28.518Z,11.10
2019-02-18T00:18:59.808Z,12.57
2019-02-18T00:21:31.018Z,15.00
2019-02-18T00:24:02.272Z,15.00
2019-02-18T00:26:33.580Z,14.03
2019-02-18T00:29:04.828Z,15.83
2019-02-18T00:31:36.060Z,11.33
2019-02-18T00:34:07.312Z,20.37
2019-02-18T00:36:38.707Z,15.30
2019-02-18T00:39:10.002Z,11.47
2019-02-18T00:41:41.264Z,11.60
2019-02-18T00:44:12.516Z,10.37
2019-02-18T00:46:46.640Z,20.13
2019-02-18T00:49:17.834Z,19.80
2019-02-18T00:51:49.133Z,11.70
2019-02-18T00:54:20.371Z,10.63
2019-02-18T00:56:51.662Z,10.30
2019-02-18T00:59:25.629Z,10.20
2019-02-18T01:01:57.034Z,10.90
2019-02-18T01:04:28.269Z,19.30
2019-02-18T01:06:59.672Z,11.10
2019-02-18T01:09:30.813Z,14.43
2019-02-18T01:12:02.130Z,15.70
2019-02-18T01:14:33.797Z,11.10
2019-02-18T01:17:05.103Z,13.67
2019-02-18T01:19:36.366Z,12.90
2019-02-18T01:22:07.530Z,18.93
2019-02-18T01:24:38.880Z,12.13
2019-02-18T01:27:10.116Z,14.20
2019-02-18T01:29:41.410Z,10.10
2019-02-18T01:32:12.555Z,14.10
2019-02-18T01:34:43.803Z,14.03
2019-02-18T01:37:15.001Z,13.50
2019-02-18T01:39:46.268Z,12.93
2019-02-18T01:42:17.497Z,12.80
2019-02-18T01:44:48.776Z,17.70
2019-02-18T01:47:20.039Z,13.33
2019-02-18T01:49:51.339Z,16.03
2019-02-18T01:52:22.536Z,17.67
2019-02-18T01:54:53.790Z,13.67
2019-02-18T01:57:25.136Z,13.00
2019-02-18T01:59:56.395Z,11.63
2019-02-18T02:02:27.653Z,17.83
2019-02-18T02:04:58.970Z,13.43
2019-02-18T02:07:55.707Z,16.07
2019-02-18T02:10:21.903Z,14.00
2019-02-18T02:12:54.626Z,10.37
2019-02-18T02:15:28.117Z,14.00
2019-02-18T02:17:59.360Z,12.90
2019-02-18T02:20:30.508Z,12.00
2019-02-18T02:23:01.743Z,12.37
2019-02-18T02:25:33.002Z,12.43
2019-02-18T02:28:04.263Z,12.80
2019-02-18T02:30:35.477Z,14.83
2019-02-18T02:33:06.698Z,15.43
2019-02-18T02:35:38.245Z,10.70
2019-02-18T02:38:09.533Z,16.40
2019-02-18T02:40:40.736Z,14.63
2019-02-18T02:43:11.926Z,16.37
2019-02-18T02:45:43.137Z,13.33
2019-02-18T02:48:14.474Z,14.03
2019-02-18T02:50:45.744Z,13.97
2019-02-18T02:53:16.973Z,20.83
2019-02-18T02:55:48.634Z,15.10
2019-02-18T02:58:19.783Z,12.00
2019-02-18T03:00:51.133Z,12.27
2019-02-18T03:03:22.377Z,11.20
2019-02-18T03:05:53.618Z,14.10
2019-02-18T03:08:24.814Z,19.20
2019-02-18T03:10:56.429Z,27.60
2019-02-18T03:13:27.697Z,16.70
2019-02-18T03:16:17.927Z,15.13
2019-02-18T03:18:49.219Z,17.67
2019-02-18T03:21:20.577Z,18.40
2019-02-18T03:23:51.845Z,16.60
2019-02-18T03:26:23.099Z,13.30
2019-02-18T03:29:58.013Z,13.97
2019-02-18T03:32:31.955Z,12.40
2019-02-18T03:35:03.104Z,13.77
2019-02-18T03:37:34.402Z,10.90
2019-02-18T03:40:05.865Z,25.37
2019-02-18T03:42:37.127Z,11.97
2019-02-18T03:45:08.418Z,18.90
2019-02-18T03:47:39.646Z,14.10
2019-02-18T03:50:10.993Z,18.47
2019-02-18T03:52:42.270Z,17.57
2019-02-18T03:55:13.472Z,18.57
2019-02-18T03:57:44.747Z,18.13
2019-02-18T04:00:16.105Z,14.47
2019-02-18T04:02:47.325Z,17.40
2019-02-18T04:05:18.600Z,17.77
2019-02-18T04:07:49.859Z,18.67
2019-02-18T04:10:21.144Z,15.10
2019-02-18T04:12:52.319Z,18.03
2019-02-18T04:15:23.596Z,20.50
2019-02-18T04:17:54.803Z,17.80
2019-02-18T04:20:26.088Z,15.83
2019-02-18T04:22:57.303Z,20.53
2019-02-18T04:25:47.467Z,18.60
2019-02-18T04:28:18.735Z,15.90
2019-02-18T04:30:50.081Z,18.00
2019-02-18T04:33:21.337Z,13.30
2019-02-18T04:35:52.596Z,16.30
2019-02-18T04:38:23.864Z,17.13
2019-02-18T04:40:55.135Z,13.10
2019-02-18T04:43:26.309Z,15.07
2019-02-18T04:45:57.606Z,14.77
2019-02-18T04:48:28.830Z,13.40
2019-02-18T04:51:00.130Z,23.30
2019-02-18T04:53:31.378Z,19.90
2019-02-18T04:56:02.692Z,14.57
2019-02-18T04:58:33.927Z,26.67
2019-02-18T05:01:05.183Z,14.70
2019-02-18T05:03:36.352Z,20.63
2019-02-18T05:06:07.648Z,16.87
2019-02-18T05:08:38.857Z,14.27
2019-02-18T05:11:10.059Z,19.30
2019-02-18T05:13:41.326Z,15.53
2019-02-18T05:16:12.582Z,22.93
2019-02-18T05:18:43.867Z,20.67
2019-02-18T05:21:15.122Z,15.87
2019-02-18T05:23:46.385Z,18.13
2019-02-18T05:26:17.629Z,17.40
2019-02-18T05:28:48.840Z,16.30
2019-02-18T05:31:20.061Z,18.10
2019-02-18T05:33:51.351Z,20.17
2019-02-18T05:36:22.536Z,19.70
2019-02-18T05:38:53.700Z,16.50
2019-02-18T05:41:24.974Z,17.90
2019-02-18T05:43:56.252Z,18.93
2019-02-18T05:46:27.583Z,19.10
2019-02-18T05:48:58.805Z,22.57
2019-02-18T05:51:30.027Z,17.63
2019-02-18T05:54:01.306Z,27.00
2019-02-18T05:56:32.508Z,19.80
2019-02-18T05:59:03.802Z,20.67
2019-02-18T06:01:35.042Z,14.10
2019-02-18T06:04:06.205Z,21.33
2019-02-18T06:06:37.391Z,21.93
2019-02-18T06:09:09.255Z,19.20
2019-02-18T06:11:40.413Z,22.30
2019-02-18T06:14:11.679Z,24.93
2019-02-18T06:16:42.878Z,23.20
2019-02-18T06:19:14.105Z,21.67
2019-02-18T06:21:45.395Z,21.80
2019-02-18T06:24:16.607Z,18.77
2019-02-18T06:26:47.913Z,16.77
2019-02-18T06:29:19.074Z,19.90
2019-02-18T06:31:50.314Z,19.03
2019-02-18T06:34:21.581Z,17.93
2019-02-18T06:36:52.883Z,23.63
2019-02-18T06:39:24.102Z,28.80
2019-02-18T06:41:55.362Z,27.97
2019-02-18T06:44:35.126Z,17.20
2019-02-18T06:47:10.889Z,19.97
2019-02-18T06:49:42.125Z,26.80
2019-02-18T06:52:13.346Z,23.83
2019-02-18T06:54:44.668Z,20.37
2019-02-18T06:57:37.711Z,17.43
2019-02-18T07:00:35.285Z,18.73
2019-02-18T07:03:18.586Z,17.33
2019-02-18T07:06:04.452Z,21.93
2019-02-18T07:08:56.079Z,20.77
2019-02-18T07:11:41.380Z,21.63
2019-02-18T07:14:12.675Z,20.47
2019-02-18T07:16:43.941Z,24.17
2019-02-18T07:19:15.175Z,20.80
2019-02-18T07:21:46.439Z,24.47
2019-02-18T07:24:17.680Z,17.27
2019-02-18T07:26:48.865Z,20.97
2019-02-18T07:29:20.154Z,18.90
2019-02-18T07:31:51.423Z,20.30
2019-02-18T07:34:22.664Z,16.63
2019-02-18T07:36:53.834Z,17.63
2019-02-18T07:39:25.063Z,29.73
2019-02-18T07:41:56.350Z,20.70
2019-02-18T07:44:27.633Z,23.07
2019-02-18T07:46:58.852Z,25.77
2019-02-18T07:49:30.122Z,25.50
2019-02-18T07:52:20.396Z,25.27
2019-02-18T07:54:51.533Z,19.17
2019-02-18T07:57:22.835Z,21.37
2019-02-18T07:59:54.186Z,15.20
2019-02-18T08:02:25.477Z,18.43
2019-02-18T08:04:56.687Z,16.67
2019-02-18T08:07:27.966Z,18.17
2019-02-18T08:09:59.217Z,18.57
2019-02-18T08:12:30.478Z,18.10
2019-02-18T08:15:01.756Z,14.67
2019-02-18T08:17:32.980Z,13.03
2019-02-18T08:20:04.396Z,15.37
2019-02-18T08:22:35.665Z,14.17
2019-02-18T08:25:07.413Z,16.27
2019-02-18T08:27:38.649Z,21.87
2019-02-18T08:30:12.087Z,20.20
2019-02-18T08:32:43.374Z,24.77
2019-02-18T08:35:14.703Z,30.70
2019-02-18T08:37:45.972Z,31.50
2019-02-18T08:40:22.548Z,24.90
2019-02-18T08:42:50.077Z,33.07
2019-02-18T08:45:21.346Z,20.60
2019-02-18T08:47:52.649Z,18.33
2019-02-18T08:50:23.886Z,14.07
2019-02-18T08:52:55.137Z,15.60
2019-02-18T08:55:26.404Z,13.63
2019-02-18T08:57:57.678Z,14.70
2019-02-18T09:00:28.901Z,15.27
2019-02-18T09:03:00.157Z,18.10
2019-02-18T09:05:31.337Z,13.50
2019-02-18T09:08:02.591Z,18.53
2019-02-18T09:10:34.192Z,16.30
2019-02-18T09:13:05.595Z,12.60
2019-02-18T09:15:36.851Z,13.63
2019-02-18T09:18:08.025Z,12.33
2019-02-18T09:20:39.297Z,17.17
2019-02-18T09:23:29.263Z,13.23
2019-02-18T09:26:02.289Z,14.77
2019-02-18T09:28:33.673Z,15.20
2019-02-18T09:31:04.985Z,15.03
2019-02-18T09:33:36.245Z,11.23
2019-02-18T09:36:07.545Z,16.33
2019-02-18T09:38:38.685Z,15.30
2019-02-18T09:41:09.906Z,14.73
2019-02-18T09:43:41.147Z,14.03
2019-02-18T09:46:12.392Z,12.90
2019-02-18T09:48:43.604Z,15.10
2019-02-18T09:51:14.896Z,15.57
2019-02-18T09:53:46.165Z,12.10
2019-02-18T09:56:17.431Z,12.07
2019-02-18T09:58:50.259Z,16.90
2019-02-18T10:01:21.695Z,11.73
2019-02-18T10:03:52.946Z,12.03
2019-02-18T10:06:24.193Z,10.80
2019-02-18T10:08:55.470Z,12.40
2019-02-18T10:11:26.805Z,11.40
2019-02-18T10:13:58.081Z,10.40
2019-02-18T10:16:29.347Z,9.67
2019-02-18T10:19:00.644Z,10.17
2019-02-18T10:21:31.890Z,8.50
2019-02-18T10:24:03.172Z,11.90
2019-02-18T10:26:34.346Z,10.07
2019-02-18T10:29:05.822Z,12.97
2019-02-18T10:31:37.029Z,9.50
2019-02-18T10:34:08.254Z,9.80
2019-02-18T10:36:39.496Z,10.53
2019-02-18T10:39:11.006Z,11.87
2019-02-18T10:41:42.230Z,14.00
2019-02-18T10:44:13.434Z,9.57
2019-02-18T10:46:44.643Z,15.07
2019-02-18T10:49:19.732Z,11.93
2019-02-18T10:51:48.727Z,11.17
2019-02-18T10:54:20.003Z,12.47
2019-02-18T10:56:51.297Z,23.50
2019-02-18T10:59:22.558Z,12.87
2019-02-18T11:01:53.831Z,12.10
2019-02-18T11:04:25.108Z,12.00
2019-02-18T11:06:56.361Z,9.57
2019-02-18T11:09:27.589Z,11.73
2019-02-18T11:11:58.901Z,16.50
2019-02-18T11:14:30.137Z,11.30
2019-02-18T11:17:01.473Z,11.90
2019-02-18T11:19:32.733Z,11.17
2019-02-18T11:22:04.014Z,10.80
2019-02-18T11:24:35.491Z,14.93
2019-02-18T11:27:06.783Z,9.80
2019-02-18T11:29:38.007Z,13.73
2019-02-18T11:32:09.275Z,15.30
2019-02-18T11:34:40.519Z,13.70
2019-02-18T11:37:13.763Z,13.20
2019-02-18T11:39:45.195Z,8.90
2019-02-18T11:42:16.395Z,13.10
2019-02-18T11:44:47.685Z,11.17
2019-02-18T11:47:18.841Z,10.53
2019-02-18T11:49:50.484Z,12.57
2019-02-18T11:52:21.748Z,9.80
2019-02-18T11:54:53.008Z,8.53
2019-02-18T11:57:24.281Z,10.30
2019-02-18T11:59:55.533Z,11.60
2019-02-18T12:02:26.850Z,10.97
2019-02-18T12:04:58.088Z,11.03
2019-02-18T12:07:29.386Z,9.53
2019-02-18T12:10:00.638Z,9.63
2019-02-18T12:12:31.955Z,9.00
2019-02-18T12:15:03.506Z,9.00
2019-02-18T12:17:34.779Z,8.20
2019-02-18T12:20:06.940Z,12.30
2019-02-18T12:22:38.151Z,10.40
2019-02-18T12:25:10.953Z,11.80
2019-02-18T12:27:46.444Z,15.00
2019-02-18T12:30:17.756Z,12.63
2019-02-18T12:32:49.074Z,8.83
2019-02-18T12:35:30.241Z,9.53
2019-02-18T12:37:55.526Z,10.47
2019-02-18T12:40:26.272Z,15.00
2019-02-18T12:42:57.494Z,12.47
2019-02-18T12:45:28.764Z,14.47
2019-02-18T12:48:00.029Z,10.30
2019-02-18T12:50:31.330Z,11.93
2019-02-18T12:53:02.612Z,11.50
2019-02-18T12:55:34.087Z,12.10
2019-02-18T12:58:05.550Z,9.90
2019-02-18T13:00:37.707Z,9.63
2019-02-18T13:03:09.133Z,10.97
2019-02-18T13:05:40.385Z,12.10
2019-02-18T13:08:11.670Z,9.97
2019-02-18T13:10:42.883Z,12.37
2019-02-18T13:13:14.229Z,9.20
2019-02-18T13:15:45.482Z,9.27
2019-02-18T13:18:16.784Z,5.70
2019-02-18T13:20:48.016Z,11.20
2019-02-18T13:23:19.399Z,9.80
2019-02-18T13:25:50.685Z,10.60
2019-02-18T13:28:21.963Z,10.47
2019-02-18T13:30:53.229Z,11.10
2019-02-18T13:33:24.472Z,8.77
2019-02-18T13:35:55.882Z,11.80
2019-02-18T13:38:27.148Z,10.97
2019-02-18T13:40:58.480Z,8.70
2019-02-18T13:43:29.711Z,8.83
2019-02-18T13:46:00.923Z,8.90
2019-02-18T13:48:32.639Z,10.97
2019-02-18T13:51:03.962Z,10.40
2019-02-18T13:53:35.190Z,8.40
2019-02-18T13:56:07.115Z,9.97
2019-02-18T13:58:38.476Z,6.93
2019-02-18T14:01:10.390Z,10.27
2019-02-18T14:03:41.638Z,8.17
2019-02-18T14:06:12.890Z,9.10
2019-02-18T14:08:44.173Z,11.63
2019-02-18T14:11:15.465Z,12.50
2019-02-18T14:13:47.182Z,9.80
2019-02-18T14:16:18.451Z,18.83
2019-02-18T14:18:49.882Z,9.40
2019-02-18T14:21:21.100Z,9.90
2019-02-18T14:23:52.440Z,11.23
2019-02-18T14:26:24.125Z,8.70
2019-02-18T14:28:55.360Z,9.07
2019-02-18T14:31:26.634Z,9.60
2019-02-18T14:33:57.963Z,9.20
2019-02-18T14:36:29.164Z,9.87
2019-02-18T14:39:00.707Z,9.47
2019-02-18T14:41:31.882Z,10.60
2019-02-18T14:44:03.126Z,7.30
2019-02-18T14:46:34.407Z,12.63
2019-02-18T14:49:05.779Z,11.70
2019-02-18T14:51:37.465Z,7.70
2019-02-18T14:54:08.787Z,8.57
2019-02-18T14:56:41.043Z,9.03
2019-02-18T14:59:12.408Z,9.40
2019-02-18T15:01:44.868Z,12.77
2019-02-18T15:04:16.371Z,7.70
2019-02-18T15:06:47.651Z,9.60
2019-02-18T15:09:19.473Z,8.47
2019-02-18T15:11:50.778Z,9.87
2019-02-18T15:14:22.074Z,7.83
2019-02-18T15:16:53.830Z,9.93
2019-02-18T15:19:25.085Z,13.67
2019-02-18T15:21:56.395Z,7.40
2019-02-18T15:24:27.728Z,8.03
2019-02-18T15:26:58.988Z,8.53
2019-02-18T15:29:30.239Z,11.40
2019-02-18T15:32:01.538Z,8.40
2019-02-18T15:34:32.823Z,10.40
2019-02-18T15:37:04.122Z,9.80
2019-02-18T15:39:35.398Z,12.37
2019-02-18T15:42:06.672Z,11.17
2019-02-18T15:44:37.960Z,8.20
2019-02-18T15:47:09.328Z,10.03
2019-02-18T15:49:40.638Z,8.80
2019-02-18T15:52:12.221Z,7.60
2019-02-18T15:54:43.573Z,10.50
2019-02-18T15:57:14.817Z,9.00
2019-02-18T15:59:46.174Z,7.60
2019-02-18T16:02:17.379Z,14.70
2019-02-18T16:04:48.724Z,11.93
2019-02-18T16:07:19.966Z,8.80
2019-02-18T16:09:51.273Z,11.97
2019-02-18T16:12:22.586Z,8.43
2019-02-18T16:14:53.808Z,9.07
2019-02-18T16:17:25.106Z,11.53
2019-02-18T16:19:56.350Z,10.80
2019-02-18T16:22:27.652Z,8.40
2019-02-18T16:24:58.907Z,8.00
2019-02-18T16:27:30.196Z,9.43
2019-02-18T16:30:02.853Z,8.93
2019-02-18T16:32:34.374Z,10.97
2019-02-18T16:35:06.042Z,8.37
2019-02-18T16:37:37.710Z,8.20
2019-02-18T16:40:11.710Z,8.70
2019-02-18T16:42:43.020Z,12.87
2019-02-18T16:45:15.418Z,12.50
2019-02-18T16:47:46.746Z,14.00
2019-02-18T16:50:18.059Z,15.47
2019-02-18T16:52:49.408Z,9.20
2019-02-18T16:55:20.662Z,11.00
2019-02-18T16:57:52.256Z,11.40
2019-02-18T17:00:32.592Z,13.27
2019-02-18T17:03:06.195Z,10.30
2019-02-18T17:05:37.444Z,10.87
2019-02-18T17:08:09.695Z,10.57
2019-02-18T17:10:41.059Z,10.20
2019-02-18T17:13:12.289Z,7.23
2019-02-18T17:15:43.718Z,6.93
2019-02-18T17:18:15.509Z,6.37
2019-02-18T17:20:46.869Z,10.17
2019-02-18T17:23:18.263Z,6.67
2019-02-18T17:25:49.977Z,6.23
2019-02-18T17:28:21.529Z,7.20
2019-02-18T17:30:52.913Z,5.53
2019-02-18T17:33:24.262Z,6.03
2019-02-18T17:35:55.513Z,5.70
2019-02-18T17:38:43.876Z,6.93
2019-02-18T17:41:15.194Z,10.70
2019-02-18T17:43:46.455Z,7.63
2019-02-18T17:46:17.816Z,6.67
2019-02-18T17:48:50.191Z,6.60
2019-02-18T17:51:21.475Z,6.20
2019-02-18T17:53:52.760Z,6.97
2019-02-18T17:56:24.046Z,5.37
2019-02-18T17:58:55.474Z,5.70
2019-02-18T18:01:27.342Z,8.80
2019-02-18T18:03:59.005Z,9.50
2019-02-18T18:06:30.473Z,9.57
2019-02-18T18:09:01.754Z,6.70
2019-02-18T18:11:33.452Z,6.50
2019-02-18T18:14:04.804Z,9.27
2019-02-18T18:16:36.151Z,9.40
2019-02-18T18:19:09.510Z,7.87
2019-02-18T18:21:41.217Z,8.27
2019-02-18T18:24:17.989Z,9.03
2019-02-18T18:26:49.574Z,6.80
2019-02-18T18:29:21.017Z,9.43
2019-02-18T18:31:52.371Z,9.27
2019-02-18T18:34:23.814Z,9.20
2019-02-18T18:36:55.226Z,8.17
2019-02-18T18:39:26.539Z,11.20
2019-02-18T18:41:57.885Z,8.87
2019-02-18T18:44:29.254Z,12.00
2019-02-18T18:47:00.553Z,12.33
2019-02-18T18:49:31.831Z,8.57
2019-02-18T18:52:03.117Z,9.77
2019-02-18T18:54:34.485Z,11.83
2019-02-18T18:57:05.950Z,11.80
2019-02-18T18:59:37.571Z,10.60
2019-02-18T19:02:09.006Z,12.60
2019-02-18T19:04:40.425Z,11.50
2019-02-18T19:07:11.821Z,9.10
2019-02-18T19:09:43.181Z,12.27
2019-02-18T19:12:14.793Z,7.90
2019-02-18T19:14:45.970Z,8.33
2019-02-18T19:17:17.280Z,8.53
2019-02-18T19:19:48.763Z,7.47
2019-02-18T19:22:20.207Z,11.97
2019-02-18T19:24:51.855Z,9.60
2019-02-18T19:27:23.210Z,12.70
2019-02-18T19:29:54.488Z,11.63
2019-02-18T19:32:25.909Z,9.57
2019-02-18T19:34:57.423Z,11.67
2019-02-18T19:37:29.129Z,9.13
2019-02-18T19:40:00.469Z,15.47
2019-02-18T19:42:31.779Z,10.30
2019-02-18T19:45:03.109Z,13.23
2019-02-18T19:47:34.395Z,9.87
2019-02-18T19:50:05.919Z,15.80
2019-02-18T19:52:37.247Z,10.67
2019-02-18T19:55:09.332Z,13.70
2019-02-18T19:57:40.678Z,13.23
2019-02-18T20:00:14.688Z,12.83
2019-02-18T20:02:45.973Z,14.10
2019-02-18T20:05:17.322Z,12.20
2019-02-18T20:07:48.590Z,9.07
2019-02-18T20:10:19.946Z,12.33
2019-02-18T20:12:51.315Z,11.03
2019-02-18T20:15:22.651Z,11.53
2019-02-18T20:17:54.095Z,13.63
2019-02-18T20:20:25.448Z,13.50
2019-02-18T20:22:56.691Z,12.50
2019-02-18T20:25:27.951Z,14.00
2019-02-18T20:27:59.346Z,10.00
2019-02-18T20:30:30.831Z,14.33
2019-02-18T20:33:02.105Z,10.60
2019-02-18T20:35:33.440Z,10.80
2019-02-18T20:38:05.010Z,11.30
2019-02-18T20:40:36.772Z,11.90
2019-02-18T20:43:08.189Z,13.20
2019-02-18T20:45:39.666Z,10.70
2019-02-18T20:48:11.047Z,18.33
2019-02-18T20:50:43.581Z,20.93
2019-02-18T20:53:15.759Z,17.10
2019-02-18T20:55:47.271Z,11.27
2019-02-18T20:58:18.443Z,15.30
2019-02-18T21:00:49.726Z,8.97
2019-02-18T21:03:22.296Z,13.73
2019-02-18T21:05:53.635Z,9.80
2019-02-18T21:08:24.936Z,12.13
2019-02-18T21:10:56.465Z,15.10
2019-02-18T21:13:27.646Z,14.47
2019-02-18T21:15:59.144Z,11.33
2019-02-18T21:18:30.628Z,18.67
2019-02-18T21:21:01.950Z,13.63
2019-02-18T21:23:33.240Z,9.93
2019-02-18T21:26:04.547Z,15.13
2019-02-18T21:28:36.128Z,15.90
2019-02-18T21:31:07.430Z,10.87
2019-02-18T21:33:38.666Z,11.30
2019-02-18T21:36:09.966Z,12.47
2019-02-18T21:38:41.520Z,14.70
2019-02-18T21:41:13.235Z,13.00
2019-02-18T21:43:44.514Z,13.03
2019-02-18T21:46:15.777Z,13.50
2019-02-18T21:48:47.067Z,8.97
2019-02-18T21:51:18.394Z,10.77
2019-02-18T21:53:50.127Z,9.30
2019-02-18T21:56:21.427Z,12.27
2019-02-18T21:58:52.740Z,12.03
2019-02-18T22:01:24.015Z,13.40
2019-02-18T22:03:55.341Z,11.33
2019-02-18T22:06:26.974Z,15.17
2019-02-18T22:08:58.327Z,10.93
2019-02-18T22:11:29.567Z,11.87
2019-02-18T22:14:03.487Z,10.43
2019-02-18T22:16:34.728Z,13.33
2019-02-18T22:19:06.387Z,9.17
2019-02-18T22:21:37.645Z,12.30
2019-02-18T22:24:08.897Z,13.07
2019-02-18T22:26:40.264Z,11.53
2019-02-18T22:29:11.486Z,10.13
2019-02-18T22:31:42.780Z,16.40
2019-02-18T22:34:13.980Z,11.70
2019-02-18T22:36:45.254Z,13.40
2019-02-18T22:39:16.474Z,15.97
2019-02-18T22:41:47.785Z,14.73
2019-02-18T22:44:19.019Z,16.87
2019-02-18T22:46:50.503Z,12.17
2019-02-18T22:49:21.776Z,7.73
2019-02-18T22:51:53.049Z,11.50
2019-02-18T22:54:24.370Z,14.70
2019-02-18T22:56:55.617Z,10.30
2019-02-18T22:59:26.905Z,11.10
2019-02-18T23:01:58.186Z,11.97
2019-02-18T23:04:29.449Z,10.47
2019-02-18T23:07:00.694Z,13.10
2019-02-18T23:09:32.060Z,10.70
2019-02-18T23:12:03.345Z,10.50
2019-02-18T23:14:34.624Z,10.97
2019-02-18T23:17:05.899Z,8.83
2019-02-18T23:19:37.149Z,15.50
2019-02-18T23:22:08.504Z,13.97
2019-02-18T23:24:39.727Z,12.73
2019-02-18T23:27:11.204Z,11.67
2019-02-18T23:29:42.489Z,14.33
2019-02-18T23:32:13.765Z,16.07
2019-02-18T23:34:45.015Z,10.47
2019-02-18T23:37:16.309Z,13.07
2019-02-18T23:39:47.554Z,9.97
2019-02-18T23:42:18.833Z,15.57
2019-02-18T23:44:50.170Z,11.20
2019-02-18T23:47:22.428Z,10.00
2019-02-18T23:49:53.580Z,10.77
2019-02-18T23:52:24.796Z,20.33
2019-02-18T23:54:55.964Z,9.97
2019-02-18T23:57:27.268Z,11.90
2019-02-18T23:59:58.506Z,12.03
